Date,TemperatureHighF,TemperatureAvgF,TemperatureLowF,DewpointHighF,DewpointAvgF,DewpointLowF,HumidityHigh,HumidityAvg,HumidityLow,PressureMaxIn,PressureMinIn,WindSpeedMaxMPH,WindSpeedAvgMPH,GustSpeedMaxMPH,PrecipitationSumIn
2013-1-1,31.7,27.2,22.6,29.5,22.2,15.4,92,81,73,30.17,30.05,18,4,18,0.00
2013-1-2,22.7,20.3,13.5,17.9,15.1,10.2,88,80,73,30.31,30.14,14,3,20,0.00
2013-1-3,29.0,22.3,14.2,24.0,17.2,10.0,87,81,69,30.29,30.16,28,6,30,0.00
2013-1-4,31.5,27.6,25.3,24.0,20.0,17.7,85,73,59,30.29,30.15,50,9,50,0.00
2013-1-5,35.2,30.1,25.6,27.4,23.5,20.2,85,77,67,30.41,30.16,16,5,28,0.01
2013-1-6,36.6,34.2,31.8,31.9,29.7,27.2,93,84,74,30.29,30.00,30,6,34,0.07
2013-1-7,37.0,32.1,29.1,30.6,27.2,24.3,95,82,64,30.50,30.28,36,6,40,0.04
2013-1-8,42.5,34.1,27.0,29.5,25.3,22.7,84,71,49,30.37,30.28,34,6,36,0.12
2013-1-9,47.9,41.4,36.3,37.6,31.6,27.9,85,68,56,30.53,30.19,38,8,46,0.06
2013-1-10,42.7,36.5,27.3,31.7,28.5,25.3,94,74,52,30.66,30.26,28,3,36,0.00
2013-1-11,54.6,48.5,42.0,50.8,41.8,26.1,94,79,52,30.27,29.86,52,10,52,0.47
2013-1-12,60.4,55.0,48.7,55.4,51.3,47.0,96,88,77,30.05,29.89,34,7,34,0.00
2013-1-13,64.5,51.4,36.6,58.3,48.7,35.4,96,91,79,30.05,29.75,28,6,44,0.40
2013-1-14,36.4,29.5,27.4,35.3,24.9,20.7,96,83,76,30.50,30.05,28,5,28,0.01
2013-1-15,32.2,28.4,26.6,23.8,22.2,19.7,85,78,60,30.49,30.18,18,2,18,0.00
2013-1-16,35.5,31.2,27.5,25.8,23.3,20.5,84,73,59,30.20,29.93,26,4,28,0.00
2013-1-17,35.1,32.6,23.9,30.3,25.9,15.4,86,76,65,30.31,30.05,32,6,32,0.00
2013-1-18,35.5,27.1,20.6,20.6,15.8,9.6,79,62,51,30.54,30.14,56,9,58,0.00
2013-1-19,51.4,43.5,35.5,32.0,26.2,20.5,58,51,43,30.16,29.72,40,11,46,0.00
2013-1-20,48.3,28.6,20.9,34.0,18.4,10.9,76,65,53,30.21,29.69,52,12,64,0.00
2013-1-21,21.6,17.8,10.7,15.6,11.1,7.7,89,75,58,30.19,30.00,30,6,32,0.00
2013-1-22,10.6,8.0,6.3,7.7,4.5,1.6,88,85,77,30.36,30.14,32,4,32,0.00
2013-1-23,14.7,11.1,7.7,10.9,7.7,4.6,88,86,79,30.37,30.17,20,3,20,0.00
2013-1-24,20.0,15.1,6.7,13.3,8.4,1.8,91,75,58,30.65,30.16,28,3,32,0.00
2013-1-25,18.5,15.4,11.9,14.5,10.0,5.7,88,79,69,30.61,30.12,20,3,20,0.00
2013-1-26,24.9,21.5,17.6,21.8,18.3,14.6,92,87,82,30.52,30.16,24,2,24,0.00
2013-1-27,29.9,23.9,14.3,27.0,17.3,10.7,91,76,61,30.60,30.32,30,5,30,0.00
2013-1-28,48.2,40.2,28.7,46.8,38.5,25.4,97,94,84,30.34,29.98,40,8,44,0.83
2013-1-29,61.9,51.1,37.8,55.2,48.8,36.8,98,92,76,30.11,29.66,46,7,46,0.18
2013-1-30,64.9,56.3,37.4,56.4,51.1,33.6,96,83,70,29.67,29.16,56,12,64,0.41
2013-1-31,37.3,25.6,19.9,33.5,19.0,10.6,91,76,62,29.92,29.28,44,13,58,0.01
2013-2-1,19.9,15.8,13.0,14.8,10.7,6.4,90,80,66,30.38,29.90,32,8,32,0.00
2013-2-2,22.2,17.3,12.4,20.1,13.6,6.3,92,85,74,30.37,30.05,24,4,26,0.00
2013-2-3,20.9,18.9,17.4,18.9,15.1,12.4,92,85,75,30.09,29.95,28,5,28,0.00
2013-2-4,25.1,20.8,17.1,21.9,16.9,9.3,93,85,69,30.12,29.95,26,3,28,0.00
2013-2-5,28.4,24.1,19.7,23.5,20.5,17.4,93,86,73,30.01,29.92,16,2,16,0.01
2013-2-6,30.2,24.9,18.5,25.8,17.4,13.1,92,73,56,30.40,30.00,20,4,26,0.03
2013-2-7,45.2,33.3,20.8,29.6,22.4,13.4,74,64,49,30.38,29.92,36,6,40,0.13
2013-2-8,38.7,31.0,23.7,36.2,27.5,20.0,94,87,73,30.31,29.78,46,10,46,0.33
2013-2-9,29.7,24.6,20.7,21.8,19.7,16.8,89,81,70,30.51,30.31,28,3,34,0.01
2013-2-10,50.1,36.6,22.0,33.6,21.0,16.8,81,55,33,30.40,29.85,44,9,48,0.00
2013-2-11,50.5,41.2,33.0,43.8,33.7,25.0,90,75,64,29.95,29.69,50,12,58,0.00
2013-2-12,33.0,30.3,25.1,26.1,24.5,22.8,92,79,71,30.13,29.94,30,5,30,0.00
2013-2-13,35.2,28.6,23.7,26.6,24.2,21.4,92,84,68,29.99,29.82,16,2,16,0.00
2013-2-14,38.9,33.9,25.4,34.6,29.7,22.6,90,85,73,29.94,29.84,36,9,42,0.00
2013-2-15,36.8,30.2,25.6,29.3,24.1,18.3,89,78,66,30.16,29.94,34,4,36,0.01
2013-2-16,28.5,24.2,19.8,20.7,16.8,9.7,90,74,49,30.15,30.03,14,2,16,0.01
2013-2-17,20.5,16.7,9.3,17.7,12.2,5.2,92,83,66,30.33,30.03,22,4,26,0.00
2013-2-18,45.9,28.1,9.2,32.2,17.1,5.2,85,64,50,30.35,29.81,48,10,62,0.03
2013-2-19,47.9,31.7,17.1,38.5,26.5,12.0,93,82,55,30.00,29.63,52,11,52,0.22
2013-2-20,21.0,18.9,16.4,16.0,12.9,8.8,91,77,65,30.29,30.00,30,9,40,0.00
2013-2-21,21.2,19.3,16.7,17.4,14.1,11.2,87,80,70,30.45,30.27,22,4,22,0.00
2013-2-22,38.3,29.5,17.8,35.5,25.4,13.7,93,85,73,30.39,30.00,44,7,46,0.06
2013-2-23,36.6,32.4,29.0,31.4,26.8,22.9,88,80,71,30.04,29.95,24,4,26,0.00
2013-2-24,31.5,29.0,26.1,27.5,23.9,21.2,88,81,73,30.22,29.95,24,6,26,0.00
2013-2-25,40.8,31.1,21.5,28.8,24.6,19.5,94,78,54,30.30,30.14,20,2,20,0.00
2013-2-26,38.6,34.8,28.9,35.2,28.8,22.3,93,79,62,30.17,29.57,54,10,56,0.68
2013-2-27,41.9,37.4,33.2,38.1,35.1,30.5,95,91,83,29.69,29.55,34,5,36,0.33
2013-2-28,33.7,32.4,30.2,31.7,29.9,27.0,95,91,86,29.94,29.63,24,6,24,0.03
2013-3-1,30.3,27.1,24.1,27.8,23.2,20.8,93,86,78,30.09,29.93,24,5,26,0.00
2013-3-2,26.5,24.6,22.4,23.9,21.4,18.8,91,87,82,30.08,30.05,20,4,24,0.00
2013-3-3,24.7,23.4,22.3,22.2,20.4,18.2,92,88,79,30.11,30.05,24,6,26,0.00
2013-3-4,31.1,24.5,18.3,21.1,18.7,15.6,91,79,63,30.21,30.11,18,3,18,0.04
2013-3-5,33.1,32.1,31.0,26.1,25.7,25.2,79,77,75,29.80,29.78,16,3,16,0.02
2013-3-6,44.6,34.9,30.3,31.7,28.3,25.5,91,77,58,30.23,29.78,24,4,24,0.00
2013-3-7,35.7,32.2,28.0,32.1,29.7,24.9,94,90,84,30.43,30.22,16,3,16,0.00
2013-3-8,33.9,29.6,25.9,30.1,27.0,23.8,94,90,85,30.53,30.42,12,1,12,0.00
2013-3-9,53.9,39.0,23.3,34.8,28.5,21.8,96,69,44,30.52,30.16,30,4,32,0.00
2013-3-10,69.0,58.6,48.3,39.1,34.2,28.1,57,41,29,30.16,29.90,40,9,44,0.00
2013-3-11,61.6,53.1,42.2,48.8,42.1,34.9,94,69,38,29.91,29.58,54,9,60,0.97
2013-3-12,42.4,35.9,33.1,37.6,30.3,25.7,87,80,73,30.03,29.77,28,7,30,0.00
2013-3-13,33.2,30.1,26.4,27.4,23.6,17.0,89,76,63,30.21,29.95,40,9,40,0.00
2013-3-14,33.6,29.1,25.8,22.7,19.3,16.2,72,66,57,30.31,30.17,30,7,34,0.00
2013-3-15,40.3,34.2,30.5,32.4,28.3,22.4,95,79,67,30.17,29.92,22,4,26,0.01
2013-3-16,33.5,31.0,28.2,32.0,29.2,25.4,95,93,89,30.09,29.75,26,2,26,0.00
2013-3-17,31.2,28.5,24.8,27.2,23.2,17.4,93,81,67,30.31,30.08,18,2,20,0.09
2013-3-18,40.2,33.1,24.7,38.8,29.2,17.7,96,86,71,30.26,29.65,46,9,48,0.62
2013-3-19,39.4,30.8,25.5,38.3,23.8,18.3,96,75,63,30.00,29.74,42,9,44,0.01
2013-3-20,29.9,27.6,22.4,21.9,18.9,14.8,83,69,63,30.02,29.95,30,9,32,0.00
2013-3-21,28.9,23.1,18.1,25.8,19.5,13.5,93,86,73,29.97,29.92,28,6,28,0.01
2013-3-22,33.1,27.6,24.4,25.6,22.5,19.7,94,81,66,30.08,29.97,24,6,28,0.05
2013-3-23,37.6,27.9,17.9,26.8,21.9,15.7,93,79,60,30.16,30.07,16,2,18,0.04
2013-3-24,34.5,29.6,23.3,25.7,22.9,20.1,91,77,57,30.12,29.60,28,5,32,0.00
2013-3-25,35.7,32.5,30.5,32.6,30.1,25.3,95,91,72,29.88,29.53,26,3,26,0.17
2013-3-26,38.8,33.4,31.4,32.9,31.1,30.0,96,91,76,30.15,29.88,18,2,20,0.05
2013-3-27,39.9,35.1,31.5,31.8,29.8,26.6,96,82,59,30.23,30.13,26,5,28,0.18
2013-3-28,40.2,35.9,32.8,32.2,30.5,28.2,94,81,68,30.32,30.21,18,3,18,0.01
2013-3-29,45.7,39.9,32.3,32.1,28.5,23.3,80,65,44,30.33,30.27,20,4,20,0.00
2013-3-30,55.6,42.2,29.9,29.7,25.0,21.4,77,53,29,30.29,30.04,24,4,26,0.00
2013-3-31,52.4,47.9,44.8,44.8,33.9,22.5,87,60,40,30.04,29.70,36,6,36,0.04
2013-4-1,47.6,35.4,30.5,41.8,23.6,13.4,89,63,40,30.12,29.69,32,8,32,0.00
2013-4-2,37.2,31.2,26.9,23.1,16.8,7.6,74,56,36,30.26,30.12,28,7,30,0.00
2013-4-3,34.6,30.6,25.5,23.0,16.7,13.5,66,56,44,30.51,30.26,32,5,32,0.00
2013-4-4,42.6,37.2,25.5,17.6,16.4,15.1,65,45,34,30.46,30.03,10,2,12,0.00
2013-4-5,42.3,38.3,29.8,32.0,24.2,15.9,78,58,36,30.28,30.00,28,4,28,0.00
2013-4-6,55.5,40.7,24.8,23.2,17.0,12.7,79,43,20,30.34,29.97,34,5,34,0.00
2013-4-7,68.0,55.5,42.7,46.2,35.2,16.4,77,49,23,30.07,29.80,42,9,48,0.00
2013-4-8,71.0,56.1,35.7,54.5,44.0,32.2,88,65,46,30.09,29.84,46,7,46,0.03
2013-4-9,77.9,60.6,45.4,56.8,48.4,42.0,89,66,46,30.15,29.87,30,4,38,0.00
2013-4-10,68.3,51.7,41.3,62.5,48.0,40.1,97,87,70,30.00,29.80,44,3,48,0.48
2013-4-11,48.4,43.4,39.0,46.0,41.8,37.8,97,94,89,29.99,29.64,28,4,28,0.33
2013-4-12,55.5,44.2,39.7,54.3,41.0,33.1,98,89,72,29.89,29.49,30,6,40,0.43
2013-4-13,43.7,40.0,36.8,37.9,34.1,29.7,92,79,68,30.08,29.88,32,7,34,0.06
2013-4-14,53.9,43.6,32.9,38.1,33.9,29.3,88,69,52,30.20,30.02,30,3,30,0.00
2013-4-15,71.3,61.0,50.5,51.3,45.1,36.0,71,56,45,30.08,29.99,44,9,44,0.00
2013-4-16,67.2,55.4,47.0,60.0,50.4,45.4,95,84,69,30.24,29.96,50,6,50,0.11
2013-4-17,62.1,52.8,44.7,47.3,40.4,34.4,97,65,45,30.35,30.09,24,4,26,0.00
2013-4-18,84.3,70.2,55.7,62.7,57.2,43.6,84,65,38,30.11,29.69,54,10,56,0.00
2013-4-19,71.5,50.9,39.9,60.1,42.0,28.3,94,72,54,29.85,29.38,44,10,60,0.29
2013-4-20,40.9,36.3,31.4,31.8,27.6,23.3,92,71,54,30.48,29.85,38,8,38,0.05
2013-4-21,46.1,37.3,28.1,31.3,26.8,23.9,90,67,44,30.69,30.48,26,3,26,0.00
2013-4-22,65.8,51.4,33.5,37.7,31.2,25.5,76,48,33,30.55,30.27,28,6,32,0.00
2013-4-23,73.0,59.4,44.6,42.4,35.7,26.9,62,42,29,30.28,29.91,40,9,44,0.00
2013-4-24,64.0,46.6,35.7,53.5,42.1,34.1,95,86,46,30.20,29.74,36,6,36,0.67
2013-4-25,51.2,41.0,32.2,40.7,34.0,29.6,93,78,47,30.41,30.20,36,5,36,0.08
2013-4-26,55.4,44.9,32.0,36.8,32.4,27.8,93,65,39,30.54,30.41,20,2,22,0.00
2013-4-27,70.1,56.1,41.9,43.7,35.9,30.7,75,49,27,30.45,30.15,16,3,20,0.00
2013-4-28,60.8,56.0,53.3,54.1,46.9,35.1,93,74,40,30.15,29.91,36,6,36,0.19
2013-4-29,65.5,58.2,55.1,56.5,53.2,50.3,95,84,61,30.02,29.91,28,4,32,0.06
2013-4-30,75.6,64.2,52.9,57.8,54.0,51.4,95,72,46,30.15,30.02,36,5,36,0.00
2013-5-1,81.0,68.0,56.2,57.6,52.2,45.9,81,59,35,30.29,30.15,32,6,32,0.00
2013-5-2,79.4,68.3,57.8,49.8,40.9,32.2,47,38,23,30.33,30.19,30,5,34,0.00
2013-5-3,78.3,67.6,57.9,45.1,39.2,31.8,52,37,23,30.21,30.11,38,8,42,0.00
2013-5-4,72.7,62.9,53.1,45.3,40.3,34.1,63,46,25,30.19,30.10,42,6,42,0.00
2013-5-5,76.1,64.3,54.3,43.8,36.9,24.3,62,39,16,30.14,30.02,40,6,40,0.00
2013-5-6,76.0,63.8,51.0,51.4,43.2,27.5,69,48,28,30.09,29.99,36,5,36,0.00
2013-5-7,75.1,65.2,56.2,56.5,53.5,50.8,84,67,47,30.07,29.98,20,2,22,0.00
2013-5-8,71.7,62.3,54.7,58.8,54.7,51.8,94,77,53,30.02,29.96,16,1,18,0.01
2013-5-9,76.5,64.0,51.5,58.4,49.8,34.1,98,66,26,30.02,29.95,16,1,16,0.01
2013-5-10,73.5,63.3,48.5,63.5,55.8,41.9,96,79,42,29.98,29.78,28,4,32,1.27
2013-5-11,54.4,47.2,42.5,48.9,44.8,38.1,97,91,78,29.94,29.82,18,1,20,0.14
2013-5-12,48.7,42.1,36.4,38.3,34.5,29.7,94,76,53,30.13,29.92,32,4,32,0.25
2013-5-13,48.9,41.4,36.2,32.9,28.5,24.8,84,61,41,30.24,30.11,20,2,20,0.00
2013-5-14,65.8,51.1,36.9,43.4,35.2,26.0,76,55,40,30.22,29.85,36,6,36,0.00
2013-5-15,82.0,67.8,54.7,60.8,52.7,41.1,79,60,32,29.87,29.71,36,5,36,0.01
2013-5-16,79.4,65.8,50.5,52.7,46.3,34.8,92,55,21,30.01,29.78,16,1,22,0.00
2013-5-17,74.8,62.8,48.5,54.4,44.9,38.8,82,54,33,30.18,30.01,18,1,20,0.00
2013-5-18,82.2,67.7,55.6,58.2,50.2,43.8,67,55,32,30.18,30.05,22,2,22,0.00
2013-5-19,83.8,72.0,61.2,66.4,61.6,53.5,89,71,50,30.09,29.96,24,3,26,0.00
2013-5-20,87.5,75.6,64.5,70.0,65.9,61.3,91,73,51,30.00,29.86,28,4,28,0.00
2013-5-21,86.5,77.1,70.0,69.5,66.8,62.9,91,72,51,29.90,29.78,28,4,32,0.00
2013-5-22,85.4,75.7,64.7,65.5,63.0,60.6,93,66,47,29.83,29.70,40,4,40,0.35
2013-5-23,73.2,58.7,42.0,63.6,55.6,40.9,96,90,67,30.06,29.73,22,2,24,0.24
2013-5-24,44.2,41.6,37.1,41.4,36.2,32.7,96,81,70,30.39,30.06,26,3,26,0.02
2013-5-25,57.8,46.2,34.0,41.9,36.7,31.8,97,72,45,30.43,30.33,20,2,22,0.00
2013-5-26,63.9,49.4,35.4,45.3,37.5,33.8,97,68,35,30.39,30.30,18,1,18,0.00
2013-5-27,63.1,51.0,37.4,50.5,43.2,35.8,96,77,42,30.33,30.11,22,1,22,0.09
2013-5-28,78.5,64.8,51.7,70.9,60.5,48.9,96,87,68,30.12,29.90,32,3,36,0.82
2013-5-29,86.3,76.6,70.2,68.1,64.1,60.7,84,65,51,30.05,29.93,30,3,32,0.00
2013-5-30,89.0,77.5,66.1,69.8,63.3,57.1,86,63,36,30.15,30.04,24,2,26,0.00
2013-5-31,87.4,74.3,65.6,69.3,64.9,62.6,97,74,49,30.08,29.95,34,3,34,0.81
2013-6-1,82.9,71.9,65.8,70.6,66.4,62.8,97,84,63,29.97,29.75,34,4,36,0.66
2013-6-2,74.8,67.6,58.1,65.9,61.3,52.7,97,81,60,29.96,29.75,28,3,28,0.56
2013-6-3,61.1,54.6,45.4,53.0,45.2,36.4,91,72,41,30.14,29.95,18,2,18,0.00
2013-6-4,67.8,55.5,45.5,52.7,44.5,40.3,91,69,42,30.23,30.13,14,1,16,0.00
2013-6-5,75.5,60.6,46.4,56.3,48.6,43.3,93,67,38,30.21,29.98,14,1,18,0.00
2013-6-6,62.1,57.2,53.5,61.1,55.1,49.8,98,93,73,29.99,29.83,16,0,16,0.43
2013-6-7,59.1,55.2,53.5,56.8,54.2,52.9,99,96,91,29.94,29.87,10,0,12,0.02
2013-6-8,68.8,59.6,52.7,57.6,54.5,50.7,98,84,62,30.14,29.93,14,0,16,0.00
2013-6-9,79.6,65.6,51.1,64.7,57.2,49.6,96,76,50,30.19,30.00,18,1,20,0.00
2013-6-10,72.4,67.5,63.0,69.4,64.8,59.5,98,91,67,30.00,29.75,28,2,28,0.39
2013-6-11,74.8,66.8,62.8,65.6,63.3,62.1,98,89,67,29.93,29.78,20,1,20,0.03
2013-6-12,77.2,69.7,62.8,69.4,65.8,61.3,97,88,70,29.95,29.72,14,0,14,0.03
2013-6-13,70.1,63.9,58.2,67.3,60.7,56.0,98,90,67,29.89,29.47,30,3,32,0.38
2013-6-14,68.8,60.0,52.5,59.9,55.7,51.0,98,86,62,30.12,29.88,14,1,14,0.00
2013-6-15,81.2,64.4,48.5,62.7,54.3,47.7,98,74,39,30.17,30.01,26,0,26,0.00
2013-6-16,78.9,70.4,63.6,68.3,64.0,58.7,95,80,67,30.01,29.84,26,3,32,0.10
2013-6-17,82.8,70.8,60.8,68.2,62.6,58.7,97,78,52,30.03,29.89,18,1,18,1.14
2013-6-18,74.5,64.2,53.1,64.1,58.0,49.3,97,81,62,30.07,29.88,24,2,24,0.00
2013-6-19,72.5,60.8,49.2,56.3,50.6,47.4,98,72,48,30.22,30.06,18,1,18,0.00
2013-6-20,77.8,64.2,49.3,59.2,49.6,39.1,93,64,27,30.28,30.20,16,1,16,0.00
2013-6-21,86.3,71.4,53.2,66.8,57.4,47.9,90,63,42,30.29,30.16,16,1,16,0.00
2013-6-22,89.0,78.5,67.2,73.2,66.1,59.0,81,66,53,30.18,30.03,30,2,30,0.00
2013-6-23,90.0,79.2,68.5,73.3,68.4,65.5,92,71,47,30.13,30.02,30,2,30,0.00
2013-6-24,89.3,78.7,67.2,72.2,66.6,61.7,84,67,47,30.12,29.98,22,1,24,0.00
2013-6-25,87.4,74.8,67.0,73.0,67.8,64.2,97,80,49,30.01,29.85,26,2,26,1.40
2013-6-26,86.6,73.4,65.7,72.3,67.7,64.8,98,84,57,29.94,29.80,16,1,16,0.10
2013-6-27,82.7,71.6,66.6,70.1,67.6,65.0,97,88,60,29.81,29.66,14,1,18,0.04
2013-6-28,76.0,68.8,63.1,68.4,64.8,60.6,99,87,72,29.67,29.52,14,1,14,0.03
2013-6-29,74.8,66.9,62.2,68.2,63.8,60.9,98,90,73,29.73,29.54,12,0,12,0.29
2013-6-30,74.7,67.4,61.0,67.0,63.0,60.1,98,86,72,29.93,29.73,16,1,18,0.01
2013-7-1,72.2,66.3,63.0,66.9,63.7,61.3,96,91,82,30.03,29.89,16,1,16,0.00
2013-7-2,80.7,69.5,62.3,70.7,64.8,60.7,95,85,70,30.08,29.99,14,1,18,0.00
2013-7-3,86.7,73.7,63.6,72.9,68.4,62.3,98,85,55,30.15,30.06,20,2,22,0.21
2013-7-4,80.2,72.8,67.5,72.6,68.6,66.0,97,87,71,30.19,30.13,22,2,26,0.11
2013-7-5,79.0,71.5,67.6,71.7,68.6,66.4,98,91,72,30.16,30.11,20,1,24,0.18
2013-7-6,86.8,75.1,67.2,73.5,69.8,66.2,97,85,60,30.18,30.02,14,1,16,0.14
2013-7-7,79.6,72.7,68.1,70.4,67.7,64.5,96,85,69,30.09,30.00,14,1,30,0.00
2013-7-8,86.5,73.0,64.8,75.0,67.7,62.8,98,85,58,30.11,30.02,16,1,16,1.74
2013-7-9,85.4,74.2,68.2,77.5,71.4,67.3,98,92,74,30.08,29.94,18,1,20,0.13
2013-7-10,85.5,72.5,67.6,78.3,70.3,66.1,99,93,76,29.97,29.77,20,2,24,1.09
2013-7-11,74.2,67.6,60.1,67.1,61.0,56.6,99,81,59,30.06,29.93,14,1,16,0.00
2013-7-12,79.1,68.1,57.8,67.4,62.6,56.6,99,84,60,30.15,30.06,20,1,20,0.00
2013-7-13,86.2,73.1,61.9,71.1,65.2,59.1,93,77,54,30.24,30.14,16,1,20,0.00
2013-7-14,87.8,78.1,69.0,75.0,70.9,66.0,92,79,58,30.28,30.23,16,1,16,0.00
2013-7-15,90.8,80.1,71.9,76.2,72.5,69.7,94,79,56,30.33,30.26,10,0,10,0.00
2013-7-16,89.0,80.4,71.6,77.3,74.0,70.2,97,82,65,30.32,30.25,12,0,14,0.00
2013-7-17,91.2,81.4,73.5,76.7,73.7,71.6,95,79,55,30.30,30.16,14,1,14,0.00
2013-7-18,91.5,82.1,74.0,78.0,74.3,70.9,96,79,52,30.18,30.00,16,1,16,0.00
2013-7-19,91.8,82.0,72.1,78.9,73.8,67.5,90,77,56,30.01,29.81,24,2,26,0.31
2013-7-20,78.3,71.1,66.7,72.9,68.9,65.9,98,93,82,29.94,29.78,26,1,26,3.03
2013-7-21,83.3,73.1,64.5,71.5,67.4,62.7,99,84,62,30.00,29.93,12,0,12,0.00
2013-7-22,76.2,67.9,61.1,73.2,66.2,60.2,99,94,81,29.99,29.80,8,0,10,0.05
2013-7-23,81.8,70.8,63.5,73.4,66.9,60.4,99,88,68,29.83,29.67,18,1,18,0.46
2013-7-24,68.5,63.2,53.6,61.1,54.8,51.8,95,74,60,30.07,29.83,22,2,22,0.00
2013-7-25,76.3,63.6,53.0,57.0,52.7,49.3,95,70,46,30.14,30.06,18,1,24,0.00
2013-7-26,80.3,66.1,51.5,63.6,57.5,50.6,98,76,43,30.14,29.99,14,1,16,0.00
2013-7-27,70.5,66.0,63.1,65.4,62.0,58.1,95,87,74,29.99,29.82,24,2,24,0.20
2013-7-28,69.8,62.8,54.9,62.0,55.0,47.8,97,77,50,30.04,29.86,28,2,28,0.13
2013-7-29,69.9,61.6,54.8,61.3,55.7,52.0,95,82,57,30.22,30.03,16,1,20,0.01
2013-7-30,76.3,65.3,56.0,62.6,58.8,54.9,98,81,59,30.27,30.18,8,0,8,0.00
2013-7-31,76.9,68.9,59.4,65.8,62.1,57.1,96,80,62,30.19,29.94,20,2,20,0.00
2013-8-1,75.5,68.4,61.3,67.0,64.2,59.2,97,87,71,29.94,29.85,14,1,16,0.34
2013-8-2,75.4,66.7,59.1,65.8,60.4,56.5,97,82,53,30.00,29.90,30,2,30,0.21
2013-8-3,68.0,66.4,65.3,66.6,65.4,64.5,98,97,93,29.99,29.93,14,1,14,0.04
2013-8-9,75.3,68.8,61.2,67.8,62.6,54.4,98,82,49,30.04,29.92,4,1,14,0.33
2013-8-10,75.6,67.4,59.4,63.9,59.6,56.1,97,77,56,30.16,30.03,6,0,14,0.00
2013-8-11,82.3,68.9,58.0,65.4,59.4,55.6,94,73,47,30.17,30.07,12,1,14,0.00
2013-8-12,74.1,68.5,61.8,69.0,64.0,58.8,94,86,74,30.09,29.86,14,1,14,0.03
2013-8-13,69.7,63.9,56.2,66.6,58.7,48.1,98,84,63,30.02,29.82,22,1,28,0.18
2013-8-14,68.8,60.4,52.6,56.1,52.3,47.3,94,75,53,30.20,30.02,28,1,28,0.00
2013-8-15,71.2,60.6,51.8,57.8,53.4,50.1,95,79,54,30.23,30.16,12,0,12,0.00
2013-8-16,75.8,62.1,51.0,60.8,55.3,49.9,98,80,55,30.24,30.17,12,0,12,0.00
2013-8-17,81.3,65.8,53.3,64.1,57.4,52.3,98,77,45,30.29,30.23,18,1,18,0.00
2013-8-18,79.2,67.4,56.8,67.0,61.2,55.1,96,81,57,30.25,30.15,14,0,14,0.00
2013-8-19,79.1,68.7,61.1,67.4,62.7,57.4,98,83,50,30.17,30.10,10,1,10,0.00
2013-8-20,83.3,71.8,62.2,67.0,61.6,57.1,89,72,49,30.20,30.11,16,1,16,0.00
2013-8-21,88.5,74.4,64.3,68.7,64.1,60.3,89,72,43,30.21,30.05,20,1,20,0.00
2013-8-22,82.3,72.5,65.6,70.3,67.1,63.8,95,84,64,30.10,30.00,18,1,18,0.00
2013-8-23,81.3,71.1,58.2,67.8,61.0,51.1,98,74,37,30.22,30.03,22,1,22,0.01
2013-8-24,81.1,67.3,55.7,61.3,56.7,52.5,95,72,40,30.35,30.21,18,1,18,0.00
2013-8-25,85.0,71.5,57.5,66.4,60.2,54.3,94,69,48,30.36,30.22,14,1,14,0.00
2013-8-26,86.4,76.0,66.1,70.1,63.9,58.8,85,67,48,30.24,30.00,20,2,20,0.01
2013-8-27,79.7,75.2,69.2,75.4,71.0,67.7,98,87,72,30.04,29.91,24,1,24,0.75
2013-8-28,83.8,72.8,68.9,72.9,71.1,62.7,98,95,86,30.29,29.83,16,1,16,0.09
2013-8-29,85.4,74.5,65.5,74.7,69.9,64.0,99,86,63,30.09,29.98,12,1,12,0.00
2013-8-30,86.7,75.0,63.3,73.7,67.9,62.5,99,80,56,30.04,29.80,20,1,20,0.01
2013-8-31,81.8,73.9,67.6,73.5,69.7,66.4,98,87,72,29.86,29.75,18,1,18,0.00
2013-9-1,80.9,72.1,65.6,73.7,69.3,64.7,99,91,73,29.86,29.77,18,1,18,0.08
2013-9-2,76.6,70.4,64.3,71.7,67.3,60.4,99,90,74,29.88,29.75,10,1,10,0.00
2013-9-3,66.4,61.7,56.7,60.4,56.7,54.1,93,84,74,30.07,29.88,18,1,18,0.00
2013-9-4,77.0,65.1,54.9,63.4,58.2,53.2,95,80,52,30.14,30.06,16,1,22,0.00
2013-9-5,68.7,63.6,50.3,64.0,55.1,48.3,93,75,51,30.27,30.07,18,1,18,0.00
2013-9-6,75.3,59.3,46.5,56.7,50.6,44.6,96,76,38,30.32,30.15,14,1,14,0.00
2013-9-7,78.8,67.9,56.5,68.1,57.7,47.7,86,70,50,30.15,29.94,18,2,18,0.00
2013-9-8,73.3,66.9,52.4,66.9,61.2,49.8,97,83,60,30.10,29.92,22,1,22,0.00
2013-9-9,79.3,67.4,53.7,71.4,61.6,49.9,88,82,72,30.10,30.00,26,3,26,0.00
2013-9-10,95.8,83.2,73.7,75.6,71.7,68.9,87,70,44,30.07,29.99,22,3,26,0.00
2013-9-11,93.0,81.5,73.0,76.0,71.5,67.5,91,73,45,30.10,29.96,16,2,18,0.03
2013-9-12,72.9,68.4,56.4,68.7,65.3,53.8,98,90,77,29.98,29.83,24,1,28,0.95
2013-9-13,60.4,56.2,52.4,58.6,51.9,44.1,98,86,66,30.12,29.89,22,2,28,0.35
2013-9-14,64.1,54.2,45.0,50.6,46.6,42.5,95,76,55,30.22,30.11,16,1,16,0.00
2013-9-15,68.3,57.9,48.4,55.8,50.9,46.3,96,79,55,30.21,30.09,18,2,18,0.03
2013-9-16,62.7,56.7,49.8,57.3,53.5,47.9,98,90,75,30.37,30.14,20,1,22,0.01
2013-9-17,71.0,55.3,41.1,49.4,44.7,39.3,97,71,35,30.46,30.29,18,1,18,0.00
2013-9-18,76.2,62.2,51.2,60.1,52.5,43.6,89,71,51,30.29,30.11,20,3,20,0.00
2013-9-19,78.9,67.5,59.3,68.1,63.2,57.5,96,87,67,30.13,30.00,32,3,32,0.00
2013-9-20,81.5,71.3,64.9,72.5,67.5,63.2,98,88,73,30.02,29.78,32,5,32,0.60
2013-9-21,68.1,62.1,54.8,67.2,60.7,53.6,98,96,79,29.84,29.68,12,1,12,1.61
2013-9-22,57.4,53.7,48.3,55.9,48.5,44.4,98,83,67,30.09,29.84,8,1,16,0.02
2013-9-23,59.2,51.2,44.2,48.8,46.9,42.4,97,86,66,30.22,30.09,10,0,10,0.01
2013-9-24,68.3,52.2,40.6,55.0,47.2,39.8,98,84,58,30.20,30.04,18,1,18,0.00
2013-9-25,74.8,56.2,43.9,58.8,49.7,40.0,98,81,45,30.06,29.96,14,0,14,0.00
2013-9-26,73.5,57.8,46.2,57.3,50.4,45.1,98,79,42,30.17,30.01,16,1,16,0.00
2013-9-27,71.4,60.3,52.2,58.3,53.8,50.3,96,80,55,30.26,30.16,18,1,18,0.00
2013-9-28,77.0,64.0,53.0,59.6,55.2,50.8,95,75,49,30.27,30.13,24,2,26,0.00
2013-9-29,73.3,63.3,54.8,62.7,57.3,50.9,93,81,65,30.14,30.01,22,4,34,0.01
2013-9-30,64.5,61.7,59.1,62.1,60.0,57.6,97,95,90,30.04,29.99,14,1,16,0.05
2013-10-1,77.3,65.2,57.1,64.6,59.9,56.2,98,84,59,30.10,30.00,18,1,18,0.01
2013-10-2,76.3,65.5,55.9,67.6,61.4,52.7,94,87,73,30.11,30.03,14,0,14,0.00
2013-10-3,78.9,67.7,55.3,71.1,62.5,52.7,94,84,71,30.12,30.01,26,2,26,0.00
2013-10-4,77.8,69.9,65.2,68.6,65.9,63.6,95,88,70,30.08,30.03,18,1,18,0.00
2013-10-5,78.5,69.2,65.7,70.0,67.0,64.3,98,93,73,30.08,29.96,22,1,22,0.35
2013-10-6,78.3,70.8,55.6,69.3,66.3,54.1,96,86,69,29.96,29.69,46,4,46,0.46
2013-10-7,57.4,53.4,46.7,54.3,47.9,42.6,97,82,64,30.16,29.73,38,3,38,0.84
2013-10-8,70.2,55.1,44.9,53.7,47.2,42.6,98,77,42,30.35,30.16,12,1,16,0.00
2013-10-9,71.6,55.8,43.6,49.7,45.7,41.8,96,72,37,30.38,30.27,24,1,24,0.00
2013-10-10,72.9,55.3,43.3,52.6,45.2,38.6,94,71,36,30.29,30.15,22,1,22,0.00
2013-10-11,76.3,56.8,43.7,58.2,49.6,42.9,98,80,40,30.18,30.10,10,0,10,0.00
2013-10-12,77.0,64.0,50.4,65.0,55.6,41.1,92,75,56,30.16,30.10,18,2,18,0.00
2013-10-13,68.5,62.7,57.1,62.4,59.2,54.8,95,89,80,30.33,30.15,22,2,22,0.01
2013-10-14,63.7,53.9,46.0,55.2,48.0,43.1,96,82,60,30.41,30.30,20,1,20,0.00
2013-10-15,63.3,55.6,42.7,60.0,52.9,41.3,98,91,84,30.30,29.97,30,3,30,0.01
2013-10-16,69.3,60.1,50.8,64.3,57.6,48.0,97,92,77,29.98,29.82,22,3,22,1.08
2013-10-17,60.1,49.9,44.2,50.5,46.6,43.0,96,89,62,29.95,29.80,10,1,26,0.14
2013-10-18,63.4,52.8,43.7,48.4,45.1,41.3,92,76,52,30.02,29.89,44,3,44,0.00
2013-10-19,52.9,45.9,40.7,45.5,43.0,38.8,96,90,74,29.96,29.78,26,2,30,0.33
2013-10-20,59.1,48.0,39.4,44.0,40.0,36.4,93,75,51,30.02,29.93,24,3,24,0.01
2013-10-21,63.4,54.0,47.9,51.9,43.7,39.9,95,69,49,30.01,29.86,34,5,34,0.21
2013-10-22,50.2,43.6,38.6,48.0,35.4,31.0,95,74,50,30.00,29.87,30,2,30,0.09
2013-10-23,45.8,40.3,33.7,40.4,34.4,30.3,96,80,60,29.99,29.83,22,2,22,0.36
2013-10-24,35.1,33.6,32.6,33.8,32.4,31.4,97,96,94,30.21,29.95,18,1,18,0.41
2013-10-25,46.1,38.0,33.6,38.3,34.0,29.9,97,86,65,30.39,30.20,34,2,34,1.28
2013-10-26,45.1,40.4,35.5,38.8,31.5,27.8,95,71,58,30.26,29.90,44,6,44,0.17
2013-10-27,49.7,41.8,36.5,38.2,35.7,34.0,94,80,58,30.14,30.02,18,2,18,0.00
2013-10-28,55.2,43.3,35.7,43.9,37.7,32.6,94,81,60,30.40,30.13,16,1,16,0.00
2013-10-29,57.7,43.5,32.6,41.6,36.6,31.0,96,79,48,30.47,30.30,14,1,14,0.00
2013-10-30,67.0,53.3,41.7,52.8,43.5,37.8,87,71,44,30.30,30.07,20,2,20,0.00
2013-10-31,65.4,60.4,57.0,59.0,57.3,52.5,96,90,77,30.07,29.31,48,8,52,0.64
2013-11-1,61.3,52.9,47.4,58.2,47.3,42.1,95,81,72,29.73,29.24,42,6,50,0.25
2013-11-2,47.3,44.8,41.5,44.5,42.7,39.6,96,93,84,30.07,29.70,22,2,22,1.31
2013-11-3,45.1,37.9,30.0,40.0,32.7,25.8,96,82,61,30.54,30.07,20,2,20,0.00
2013-11-4,45.6,37.5,30.5,28.0,23.9,20.8,82,59,40,30.60,30.44,36,6,36,0.00
2013-11-5,58.7,50.6,42.7,44.2,37.2,27.7,72,60,53,30.48,30.31,34,6,34,0.00
2013-11-6,65.7,55.9,48.9,56.5,45.7,35.1,95,70,56,30.31,29.92,40,8,42,0.32
2013-11-7,48.9,41.4,36.6,47.2,35.9,27.8,96,81,61,30.17,29.96,30,5,30,0.41
2013-11-8,41.1,37.7,32.7,34.1,29.4,26.0,94,72,56,30.34,30.13,24,5,24,0.10
2013-11-9,57.3,46.4,33.3,43.9,34.2,26.9,78,63,45,30.31,29.92,54,8,54,0.02
2013-11-10,52.8,45.3,41.3,42.7,34.5,28.4,74,66,55,30.31,29.96,44,9,44,0.00
2013-11-11,47.1,38.9,30.0,39.7,32.6,28.7,96,79,55,30.30,30.07,14,4,40,0.33
2013-11-12,33.9,30.5,28.4,29.2,25.5,20.0,96,82,66,30.56,30.27,24,3,24,0.07
2013-11-13,36.9,31.9,28.0,24.6,21.3,17.8,80,65,51,30.59,30.32,36,5,36,0.10
2013-11-14,50.4,39.8,30.1,24.5,21.9,19.3,70,50,31,30.33,30.14,34,7,36,0.18
2013-11-15,50.9,45.6,38.8,32.7,26.1,22.0,60,47,37,30.18,30.11,34,6,34,0.00
2013-11-16,59.7,51.3,42.2,51.4,43.6,32.2,82,75,60,30.24,29.95,40,8,40,0.00
2013-11-17,62.5,58.7,51.6,57.3,53.3,41.1,93,82,65,29.95,29.43,66,13,66,0.41
2013-11-18,51.5,42.6,35.5,41.8,34.3,25.3,79,72,66,30.15,29.58,56,12,56,0.00
2013-11-19,38.0,34.6,27.4,28.0,26.2,24.1,88,72,59,30.48,30.15,20,3,20,0.00
2013-11-20,46.8,36.4,25.2,25.7,21.0,16.9,91,58,31,30.52,30.38,34,4,34,0.00
2013-11-21,45.5,40.7,37.4,41.4,31.7,17.8,91,72,41,30.43,30.25,40,7,40,0.07
2013-11-22,48.0,43.2,35.2,47.2,41.3,29.8,98,93,80,30.37,30.16,32,5,32,0.27
2013-11-23,35.1,29.4,21.1,29.9,20.8,6.2,90,70,53,30.47,30.26,34,9,40,0.00
2013-11-24,23.4,21.6,20.4,16.3,11.7,5.7,78,65,51,30.61,30.46,44,8,44,0.00
2013-11-25,34.7,25.9,17.8,24.2,15.6,12.3,83,66,45,30.54,30.23,40,7,40,0.00
2013-11-26,34.3,32.1,30.8,30.8,27.9,20.3,96,85,58,30.24,29.90,22,2,22,0.00
2013-11-27,32.4,27.5,24.2,30.7,22.4,16.2,95,81,68,30.20,29.86,38,6,38,0.00
2013-11-28,28.4,25.3,21.3,21.2,18.6,15.2,89,75,64,30.49,30.20,24,4,26,0.00
2013-11-29,31.9,27.9,24.9,24.5,21.9,19.5,86,78,68,30.73,30.49,14,1,14,0.04
2013-11-30,40.8,32.6,26.5,28.9,23.9,19.1,77,70,57,30.68,30.22,36,8,36,0.06
2013-12-1,42.2,37.7,35.0,32.1,30.2,28.3,84,74,66,30.22,30.02,22,4,22,0.05
2013-12-2,39.1,35.7,30.6,34.3,31.7,28.0,93,86,76,30.02,29.92,6,0,8,0.00
2013-12-3,47.2,39.9,30.6,40.7,34.1,28.0,91,80,71,29.98,29.91,20,3,20,0.00
2013-12-4,59.4,51.8,44.1,50.5,44.9,39.0,83,77,72,29.99,29.80,36,6,36,0.00
2013-12-5,61.2,49.0,32.1,55.8,43.9,30.5,94,82,73,30.16,29.77,52,7,56,0.02
2013-12-6,33.3,30.1,25.9,30.7,27.4,23.8,95,90,77,30.40,30.13,14,1,14,0.01
2013-12-7,27.4,24.1,21.9,25.0,18.2,14.8,93,78,69,30.67,30.40,18,3,18,0.01
2013-12-8,28.7,24.5,19.9,25.7,18.1,15.4,89,77,66,30.66,30.10,38,4,38,0.00
2013-12-9,34.0,30.7,25.0,32.0,26.2,17.6,95,84,72,30.20,29.99,38,7,40,0.00
2013-12-10,26.9,23.3,20.7,17.9,13.1,6.4,77,65,42,30.32,30.05,44,8,44,0.00
2013-12-11,24.0,20.6,17.4,20.7,15.4,8.8,93,80,68,30.48,30.30,28,6,28,0.00
2013-12-12,19.7,16.1,12.5,10.3,5.7,0.2,84,64,44,30.52,30.30,44,7,44,0.00
2013-12-13,29.5,23.1,17.5,19.9,14.6,6.0,83,70,60,30.36,30.27,26,3,26,0.01
2013-12-14,32.9,28.0,24.2,31.6,25.6,19.5,95,91,78,30.34,29.73,26,2,26,0.00
2013-12-15,31.0,22.9,15.4,30.0,19.8,10.9,96,88,80,30.10,29.72,32,5,32,0.00
2013-12-16,23.6,17.5,13.9,17.6,12.6,10.2,89,81,67,30.26,30.08,28,4,28,0.02
2013-12-17,28.7,24.8,20.5,25.1,21.6,17.6,94,87,77,30.12,29.99,30,5,30,0.01
2013-12-18,29.7,26.2,24.2,23.5,21.1,17.6,91,81,67,30.22,30.04,42,7,42,0.00
2013-12-19,46.3,39.8,29.8,36.5,29.3,19.3,74,66,56,30.10,30.00,36,6,42,0.35
2013-12-20,54.8,47.3,43.0,52.8,43.5,36.5,95,87,67,30.00,29.82,36,8,36,0.28
2013-12-21,57.1,46.5,36.9,54.7,45.3,36.0,98,96,91,29.87,29.55,38,4,38,1.92
2013-12-22,60.8,46.3,35.4,56.0,44.0,34.6,98,92,77,30.03,29.48,74,7,74,0.29
2013-12-23,38.4,32.3,27.5,37.3,28.2,19.1,97,85,69,30.37,30.02,28,6,30,0.02
2013-12-24,27.5,20.2,16.8,21.9,14.7,9.9,91,79,66,30.60,30.33,30,7,32,0.00
2013-12-25,27.0,21.4,15.0,22.0,14.7,11.2,87,76,61,30.58,30.24,26,4,42,0.00
2013-12-26,29.9,27.5,23.8,27.2,22.5,18.3,94,82,71,30.40,30.15,30,5,30,0.00
2013-12-27,40.2,34.5,24.8,30.9,27.2,19.3,80,74,69,30.41,30.23,32,5,32,0.04
2013-12-28,54.1,44.2,37.6,36.0,32.6,29.8,75,64,45,30.23,30.02,36,7,36,0.01
2013-12-29,44.2,39.7,25.9,38.6,31.8,24.0,94,75,51,30.02,29.74,32,6,32,0.04
2013-12-30,25.8,19.6,17.1,24.3,17.1,14.6,94,90,86,30.32,29.99,16,1,18,0.00
2013-12-31,20.8,18.5,16.3,18.8,15.1,10.9,92,87,76,30.40,30.13,30,5,30,0.00
2014-1-1,23.0,20.3,18.8,19.9,17.6,16.5,93,89,85,30.44,30.22,14,1,16,0.00
2014-1-2,21.3,17.4,11.5,18.7,15.0,9.1,92,91,88,30.22,29.94,42,7,44,0.00